This is the latest recevied weather packets stored in our database for station/object K4DFD-13. If no packets are shown the sender has not sent any weather packets the latest 10 day(s).
| Time | Temp. | Humidity | Pressure | Rain* | Wind** | Luminosity | Snow |
|---|---|---|---|---|---|---|---|
| 1777907655 | 15° C | 55% | 1016.6 hPa | 0 mm | - | - | - |
| 1777907375 | 15° C | 56% | 1016.7 hPa | 0 mm | - | - | - |
| 1777907070 | 15° C | 55% | 1016.8 hPa | 0 mm | - | - | - |
| 1777906459 | 15° C | 55% | 1016.8 hPa | 0 mm | - | - | - |
| 1777906153 | 15° C | 54% | 1016.7 hPa | 0 mm | - | - | - |
| 1777905559 | 15° C | 53% | 1016.8 hPa | 0 mm | - | - | - |
| 1777905256 | 15° C | 53% | 1016.8 hPa | 0 mm | - | - | - |
| 1777904951 | 15° C | 53% | 1016.7 hPa | 0 mm | - | - | - |
| 1777903750 | 14.44° C | 54% | 1017 hPa | 0 mm | - | - | - |
| 1777903467 | 14.44° C | 54% | 1017 hPa | 0 mm | - | - | - |
| 1777901948 | 13.33° C | 56% | 1016.9 hPa | 0 mm | - | - | - |
| 1777901647 | 13.33° C | 55% | 1017 hPa | 0 mm | - | - | - |
| 1777901347 | 13.33° C | 56% | 1017.1 hPa | 0 mm | - | - | - |
| 1777901067 | 13.33° C | 56% | 1016.9 hPa | 0 mm | - | - | - |
| 1777900746 | 12.22° C | 59% | 1016.6 hPa | 0 mm | - | - | - |
| 1777900446 | 11.67° C | 64% | 1016.9 hPa | 0 mm | - | - | - |
| 1777900145 | 11.11° C | 66% | 1016.9 hPa | 0 mm | - | - | - |
| 1777899850 | 10.56° C | 68% | 1016.9 hPa | 0 mm | - | - | - |
| 1777898343 | 10° C | 66% | 1016.6 hPa | 0 mm | - | - | - |
| 1777898042 | 10° C | 65% | 1016.8 hPa | 0 mm | - | - | - |
| 1777897742 | 10° C | 65% | 1016.7 hPa | 0 mm | - | - | - |
| 1777897442 | 10° C | 64% | 1016.6 hPa | 0 mm | - | - | - |
| 1777897141 | 10.56° C | 64% | 1016.5 hPa | 0 mm | - | - | - |
| 1777896841 | 10° C | 63% | 1016.4 hPa | 0 mm | - | - | - |
| 1777896541 | 10° C | 63% | 1016.2 hPa | 0 mm | - | - | - |
* Rain latest hour (hover to see other rain measurements)
** Current wind speed in m/s (hover to see current wind gust speed)